sensor_id;sensor_type;location;lat;lon;timestamp;pressure;altitude;pressure_sealevel;temperature;humidity
49108;BME280;36693;47.666;-2.774;2022-08-21T00:00:08;101515.05;;;20.97;44.10
49108;BME280;36693;47.666;-2.774;2022-08-21T00:02:43;101507.36;;;20.83;43.84
49108;BME280;36693;47.666;-2.774;2022-08-21T00:05:11;101506.08;;;20.65;43.32
49108;BME280;36693;47.666;-2.774;2022-08-21T00:07:39;101508.94;;;21.19;43.20
49108;BME280;36693;47.666;-2.774;2022-08-21T00:10:08;101506.55;;;21.21;42.64
49108;BME280;36693;47.666;-2.774;2022-08-21T00:12:37;101505.53;;;21.06;43.22
49108;BME280;36693;47.666;-2.774;2022-08-21T00:15:08;101501.13;;;20.92;43.40
49108;BME280;36693;47.666;-2.774;2022-08-21T00:17:36;101503.43;;;20.86;43.32
49108;BME280;36693;47.666;-2.774;2022-08-21T00:20:06;101503.25;;;21.10;42.95
49108;BME280;36693;47.666;-2.774;2022-08-21T00:22:35;101498.56;;;21.46;42.37
49108;BME280;36693;47.666;-2.774;2022-08-21T00:25:05;101499.59;;;21.70;41.88
49108;BME280;36693;47.666;-2.774;2022-08-21T00:27:34;101497.00;;;21.33;42.45
49108;BME280;36693;47.666;-2.774;2022-08-21T00:30:05;101493.94;;;21.56;42.05
49108;BME280;36693;47.666;-2.774;2022-08-21T00:32:34;101495.50;;;21.57;42.08
49108;BME280;36693;47.666;-2.774;2022-08-21T00:35:06;101496.15;;;21.38;42.43
49108;BME280;36693;47.666;-2.774;2022-08-21T00:37:34;101496.94;;;21.22;43.08
49108;BME280;36693;47.666;-2.774;2022-08-21T00:40:03;101498.46;;;21.32;42.56
49108;BME280;36693;47.666;-2.774;2022-08-21T00:42:31;101494.44;;;21.55;42.22
49108;BME280;36693;47.666;-2.774;2022-08-21T00:44:59;101494.09;;;21.25;42.31
49108;BME280;36693;47.666;-2.774;2022-08-21T00:47:27;101485.95;;;21.15;42.89
49108;BME280;36693;47.666;-2.774;2022-08-21T00:49:54;101481.69;;;21.10;42.92
49108;BME280;36693;47.666;-2.774;2022-08-21T00:52:24;101476.59;;;20.68;43.29
49108;BME280;36693;47.666;-2.774;2022-08-21T00:54:54;101475.92;;;21.09;42.95
49108;BME280;36693;47.666;-2.774;2022-08-21T00:57:26;101470.47;;;21.05;43.40
49108;BME280;36693;47.666;-2.774;2022-08-21T00:59:58;101469.14;;;20.94;43.09
49108;BME280;36693;47.666;-2.774;2022-08-21T01:02:27;101465.44;;;20.46;44.60
49108;BME280;36693;47.666;-2.774;2022-08-21T01:04:54;101461.76;;;19.81;45.13
49108;BME280;36693;47.666;-2.774;2022-08-21T01:07:22;101463.43;;;20.70;43.69
49108;BME280;36693;47.666;-2.774;2022-08-21T01:09:51;101465.06;;;21.21;42.65
49108;BME280;36693;47.666;-2.774;2022-08-21T01:12:19;101464.79;;;21.22;42.43
49108;BME280;36693;47.666;-2.774;2022-08-21T01:14:47;101465.98;;;20.90;42.50
49108;BME280;36693;47.666;-2.774;2022-08-21T01:17:15;101463.24;;;20.51;43.10
49108;BME280;36693;47.666;-2.774;2022-08-21T01:19:44;101459.05;;;21.00;43.28
49108;BME280;36693;47.666;-2.774;2022-08-21T01:22:12;101456.51;;;20.53;43.06
49108;BME280;36693;47.666;-2.774;2022-08-21T01:24:39;101452.04;;;21.01;42.77
49108;BME280;36693;47.666;-2.774;2022-08-21T01:27:08;101448.98;;;21.20;42.44
49108;BME280;36693;47.666;-2.774;2022-08-21T01:29:39;101446.50;;;21.38;42.60
49108;BME280;36693;47.666;-2.774;2022-08-21T01:32:12;101443.57;;;21.02;42.36
49108;BME280;36693;47.666;-2.774;2022-08-21T01:34:44;101444.84;;;21.26;42.35
49108;BME280;36693;47.666;-2.774;2022-08-21T01:37:13;101441.63;;;21.10;42.68
49108;BME280;36693;47.666;-2.774;2022-08-21T01:39:42;101446.04;;;21.38;42.26
49108;BME280;36693;47.666;-2.774;2022-08-21T01:42:10;101451.69;;;20.82;42.42
49108;BME280;36693;47.666;-2.774;2022-08-21T01:44:39;101456.20;;;20.85;43.56
49108;BME280;36693;47.666;-2.774;2022-08-21T01:47:10;101459.58;;;20.94;43.49
49108;BME280;36693;47.666;-2.774;2022-08-21T01:49:39;101457.63;;;20.36;44.53
49108;BME280;36693;47.666;-2.774;2022-08-21T01:52:08;101463.08;;;20.69;44.23
49108;BME280;36693;47.666;-2.774;2022-08-21T01:54:37;101471.89;;;20.71;43.36
49108;BME280;36693;47.666;-2.774;2022-08-21T01:57:07;101472.69;;;20.75;42.82
49108;BME280;36693;47.666;-2.774;2022-08-21T01:59:35;101471.82;;;21.63;42.16
49108;BME280;36693;47.666;-2.774;2022-08-21T02:02:04;101472.34;;;21.32;42.78
49108;BME280;36693;47.666;-2.774;2022-08-21T02:04:32;101481.47;;;21.71;42.03
49108;BME280;36693;47.666;-2.774;2022-08-21T02:06:59;101484.34;;;21.64;42.14
49108;BME280;36693;47.666;-2.774;2022-08-21T02:09:27;101488.69;;;21.34;42.37
49108;BME280;36693;47.666;-2.774;2022-08-21T02:11:55;101487.14;;;21.47;42.53
49108;BME280;36693;47.666;-2.774;2022-08-21T02:14:23;101487.54;;;21.58;42.33
49108;BME280;36693;47.666;-2.774;2022-08-21T02:16:51;101486.77;;;21.25;41.99
49108;BME280;36693;47.666;-2.774;2022-08-21T02:19:19;101487.91;;;21.57;41.46
49108;BME280;36693;47.666;-2.774;2022-08-21T02:21:46;101491.27;;;21.61;41.41
49108;BME280;36693;47.666;-2.774;2022-08-21T02:24:16;101490.68;;;21.83;41.09
49108;BME280;36693;47.666;-2.774;2022-08-21T02:26:43;101491.40;;;21.65;41.23
49108;BME280;36693;47.666;-2.774;2022-08-21T02:29:12;101487.35;;;21.64;40.89
49108;BME280;36693;47.666;-2.774;2022-08-21T02:31:39;101485.37;;;22.03;40.46
49108;BME280;36693;47.666;-2.774;2022-08-21T02:34:08;101477.38;;;21.70;41.63
49108;BME280;36693;47.666;-2.774;2022-08-21T02:36:35;101468.95;;;21.61;41.87
49108;BME280;36693;47.666;-2.774;2022-08-21T02:39:03;101462.76;;;21.78;41.72
49108;BME280;36693;47.666;-2.774;2022-08-21T02:41:31;101462.28;;;21.46;42.66
49108;BME280;36693;47.666;-2.774;2022-08-21T02:43:58;101464.88;;;21.13;43.31
49108;BME280;36693;47.666;-2.774;2022-08-21T02:46:26;101457.01;;;21.53;42.28
49108;BME280;36693;47.666;-2.774;2022-08-21T02:48:54;101445.57;;;21.57;42.26
49108;BME280;36693;47.666;-2.774;2022-08-21T02:51:22;101433.43;;;21.11;42.64
49108;BME280;36693;47.666;-2.774;2022-08-21T02:53:50;101436.00;;;21.09;42.74
49108;BME280;36693;47.666;-2.774;2022-08-21T02:56:20;101434.01;;;20.82;43.27
49108;BME280;36693;47.666;-2.774;2022-08-21T02:58:51;101437.54;;;21.61;42.27
49108;BME280;36693;47.666;-2.774;2022-08-21T03:01:20;101433.07;;;20.59;42.89
49108;BME280;36693;47.666;-2.774;2022-08-21T03:03:47;101432.07;;;21.41;42.07
49108;BME280;36693;47.666;-2.774;2022-08-21T03:06:17;101432.16;;;21.39;41.49
49108;BME280;36693;47.666;-2.774;2022-08-21T03:08:45;101429.47;;;21.78;41.58
49108;BME280;36693;47.666;-2.774;2022-08-21T03:11:14;101428.60;;;21.67;41.31
49108;BME280;36693;47.666;-2.774;2022-08-21T03:13:41;101427.12;;;21.56;41.44
49108;BME280;36693;47.666;-2.774;2022-08-21T03:16:10;101427.92;;;21.53;41.39
49108;BME280;36693;47.666;-2.774;2022-08-21T03:18:38;101425.73;;;21.85;41.24
49108;BME280;36693;47.666;-2.774;2022-08-21T03:21:06;101417.80;;;21.26;41.69
49108;BME280;36693;47.666;-2.774;2022-08-21T03:23:34;101418.21;;;21.34;42.08
49108;BME280;36693;47.666;-2.774;2022-08-21T03:26:03;101413.74;;;20.96;42.72
49108;BME280;36693;47.666;-2.774;2022-08-21T03:28:31;101406.63;;;21.45;42.08
49108;BME280;36693;47.666;-2.774;2022-08-21T03:30:59;101405.54;;;21.84;41.48
49108;BME280;36693;47.666;-2.774;2022-08-21T03:33:27;101403.34;;;21.40;42.25
49108;BME280;36693;47.666;-2.774;2022-08-21T03:35:59;101399.36;;;20.83;43.57
49108;BME280;36693;47.666;-2.774;2022-08-21T03:38:29;101402.47;;;20.81;44.23
49108;BME280;36693;47.666;-2.774;2022-08-21T03:40:59;101399.93;;;20.24;44.72
49108;BME280;36693;47.666;-2.774;2022-08-21T03:43:27;101408.81;;;20.48;43.99
49108;BME280;36693;47.666;-2.774;2022-08-21T03:45:55;101412.40;;;20.81;43.15
49108;BME280;36693;47.666;-2.774;2022-08-21T03:48:23;101413.25;;;20.98;42.92
49108;BME280;36693;47.666;-2.774;2022-08-21T03:50:52;101408.20;;;20.41;44.36
49108;BME280;36693;47.666;-2.774;2022-08-21T03:53:20;101402.83;;;20.58;43.64
49108;BME280;36693;47.666;-2.774;2022-08-21T03:55:50;101397.02;;;20.90;43.27
49108;BME280;36693;47.666;-2.774;2022-08-21T03:58:25;101394.33;;;21.14;42.32
49108;BME280;36693;47.666;-2.774;2022-08-21T04:00:56;101386.94;;;21.41;41.89
49108;BME280;36693;47.666;-2.774;2022-08-21T04:03:25;101387.71;;;21.26;41.84
49108;BME280;36693;47.666;-2.774;2022-08-21T04:05:53;101385.30;;;21.54;41.50
49108;BME280;36693;47.666;-2.774;2022-08-21T04:08:21;101382.83;;;20.74;43.25
49108;BME280;36693;47.666;-2.774;2022-08-21T04:10:54;101389.76;;;20.29;43.72
49108;BME280;36693;47.666;-2.774;2022-08-21T04:13:23;101382.40;;;20.46;43.71
49108;BME280;36693;47.666;-2.774;2022-08-21T04:15:51;101384.01;;;19.94;45.35
49108;BME280;36693;47.666;-2.774;2022-08-21T04:18:19;101378.92;;;20.64;43.25
49108;BME280;36693;47.666;-2.774;2022-08-21T04:20:50;101375.81;;;21.40;42.04
49108;BME280;36693;47.666;-2.774;2022-08-21T04:23:18;101387.54;;;21.42;41.59
49108;BME280;36693;47.666;-2.774;2022-08-21T04:25:46;101387.57;;;21.61;41.47
49108;BME280;36693;47.666;-2.774;2022-08-21T04:28:14;101386.06;;;21.91;41.01
49108;BME280;36693;47.666;-2.774;2022-08-21T04:30:42;101380.32;;;22.00;40.58
49108;BME280;36693;47.666;-2.774;2022-08-21T04:33:10;101375.44;;;21.62;41.15
49108;BME280;36693;47.666;-2.774;2022-08-21T04:35:37;101372.49;;;21.93;40.69
49108;BME280;36693;47.666;-2.774;2022-08-21T04:38:06;101366.12;;;21.20;42.10
49108;BME280;36693;47.666;-2.774;2022-08-21T04:40:34;101361.90;;;21.56;41.66
49108;BME280;36693;47.666;-2.774;2022-08-21T04:43:05;101359.39;;;21.47;41.28
49108;BME280;36693;47.666;-2.774;2022-08-21T04:45:35;101359.57;;;21.59;41.44
49108;BME280;36693;47.666;-2.774;2022-08-21T04:48:07;101360.84;;;21.32;41.46
49108;BME280;36693;47.666;-2.774;2022-08-21T04:50:37;101364.15;;;21.67;40.74
49108;BME280;36693;47.666;-2.774;2022-08-21T04:53:08;101374.10;;;21.28;41.49
49108;BME280;36693;47.666;-2.774;2022-08-21T04:55:37;101382.06;;;21.75;41.51
49108;BME280;36693;47.666;-2.774;2022-08-21T04:58:06;101381.22;;;21.68;41.45
49108;BME280;36693;47.666;-2.774;2022-08-21T05:00:33;101385.89;;;21.98;41.05
49108;BME280;36693;47.666;-2.774;2022-08-21T05:03:02;101394.44;;;22.09;40.43
49108;BME280;36693;47.666;-2.774;2022-08-21T05:05:32;101399.08;;;22.36;39.94
49108;BME280;36693;47.666;-2.774;2022-08-21T05:08:03;101396.13;;;22.13;40.20
49108;BME280;36693;47.666;-2.774;2022-08-21T05:10:32;101401.69;;;21.83;40.82
49108;BME280;36693;47.666;-2.774;2022-08-21T05:13:00;101405.15;;;21.93;40.61
49108;BME280;36693;47.666;-2.774;2022-08-21T05:15:29;101405.01;;;22.22;40.00
49108;BME280;36693;47.666;-2.774;2022-08-21T05:17:56;101407.14;;;21.75;40.64
49108;BME280;36693;47.666;-2.774;2022-08-21T05:20:24;101404.45;;;20.57;42.81
49108;BME280;36693;47.666;-2.774;2022-08-21T05:22:52;101404.08;;;20.61;42.07
49108;BME280;36693;47.666;-2.774;2022-08-21T05:25:20;101408.18;;;21.19;41.98
49108;BME280;36693;47.666;-2.774;2022-08-21T05:27:48;101409.92;;;21.72;41.20
49108;BME280;36693;47.666;-2.774;2022-08-21T05:30:16;101407.39;;;21.69;40.64
49108;BME280;36693;47.666;-2.774;2022-08-21T05:32:44;101404.80;;;21.62;41.14
49108;BME280;36693;47.666;-2.774;2022-08-21T05:35:11;101408.22;;;20.79;42.54
49108;BME280;36693;47.666;-2.774;2022-08-21T05:37:39;101412.85;;;20.57;43.10
49108;BME280;36693;47.666;-2.774;2022-08-21T05:40:09;101412.99;;;18.41;47.16
49108;BME280;36693;47.666;-2.774;2022-08-21T05:42:37;101408.94;;;18.33;47.27
49108;BME280;36693;47.666;-2.774;2022-08-21T05:45:06;101410.90;;;19.40;45.76
49108;BME280;36693;47.666;-2.774;2022-08-21T05:47:35;101415.61;;;20.45;43.61
49108;BME280;36693;47.666;-2.774;2022-08-21T05:50:04;101414.50;;;18.48;46.98
49108;BME280;36693;47.666;-2.774;2022-08-21T05:52:32;101418.08;;;19.31;45.38
49108;BME280;36693;47.666;-2.774;2022-08-21T05:55:00;101415.39;;;18.91;46.59
49108;BME280;36693;47.666;-2.774;2022-08-21T05:57:27;101417.49;;;19.33;45.85
49108;BME280;36693;47.666;-2.774;2022-08-21T05:59:55;101420.03;;;19.90;44.86
49108;BME280;36693;47.666;-2.774;2022-08-21T06:02:23;101424.45;;;19.48;45.43
49108;BME280;36693;47.666;-2.774;2022-08-21T06:04:50;101428.47;;;20.00;44.62
49108;BME280;36693;47.666;-2.774;2022-08-21T06:07:18;101420.44;;;19.98;44.35
49108;BME280;36693;47.666;-2.774;2022-08-21T06:09:46;101416.18;;;19.79;45.12
49108;BME280;36693;47.666;-2.774;2022-08-21T06:12:14;101417.01;;;20.12;44.18
49108;BME280;36693;47.666;-2.774;2022-08-21T06:14:41;101422.06;;;19.64;44.61
49108;BME280;36693;47.666;-2.774;2022-08-21T06:17:11;101422.28;;;20.77;42.39
49108;BME280;36693;47.666;-2.774;2022-08-21T06:19:39;101415.92;;;20.90;42.82
49108;BME280;36693;47.666;-2.774;2022-08-21T06:22:08;101411.59;;;19.39;45.38
49108;BME280;36693;47.666;-2.774;2022-08-21T06:24:36;101412.84;;;17.55;48.81
49108;BME280;36693;47.666;-2.774;2022-08-21T06:27:05;101409.43;;;20.00;44.25
49108;BME280;36693;47.666;-2.774;2022-08-21T06:29:33;101418.25;;;20.14;43.81
49108;BME280;36693;47.666;-2.774;2022-08-21T06:32:02;101415.95;;;20.17;43.91
49108;BME280;36693;47.666;-2.774;2022-08-21T06:34:30;101419.44;;;19.72;44.53
49108;BME280;36693;47.666;-2.774;2022-08-21T06:36:57;101415.96;;;19.31;45.08
49108;BME280;36693;47.666;-2.774;2022-08-21T06:39:25;101412.54;;;21.15;42.00
49108;BME280;36693;47.666;-2.774;2022-08-21T06:41:53;101419.29;;;21.87;41.23
49108;BME280;36693;47.666;-2.774;2022-08-21T06:44:21;101414.82;;;20.39;42.43
49108;BME280;36693;47.666;-2.774;2022-08-21T06:46:49;101408.28;;;20.41;43.14
49108;BME280;36693;47.666;-2.774;2022-08-21T06:49:17;101402.13;;;19.23;44.26
49108;BME280;36693;47.666;-2.774;2022-08-21T06:51:45;101404.36;;;19.02;45.65
49108;BME280;36693;47.666;-2.774;2022-08-21T06:54:12;101406.94;;;20.37;43.14
49108;BME280;36693;47.666;-2.774;2022-08-21T06:56:40;101415.80;;;19.77;44.27
49108;BME280;36693;47.666;-2.774;2022-08-21T06:59:09;101423.48;;;21.08;42.03
49108;BME280;36693;47.666;-2.774;2022-08-21T07:01:36;101414.68;;;20.71;42.50
49108;BME280;36693;47.666;-2.774;2022-08-21T07:04:04;101407.43;;;19.59;44.56
49108;BME280;36693;47.666;-2.774;2022-08-21T07:06:33;101407.82;;;20.53;43.40
49108;BME280;36693;47.666;-2.774;2022-08-21T07:09:00;101410.44;;;19.34;45.73
49108;BME280;36693;47.666;-2.774;2022-08-21T07:11:28;101405.99;;;20.09;44.74
49108;BME280;36693;47.666;-2.774;2022-08-21T07:13:56;101412.06;;;18.88;47.65
49108;BME280;36693;47.666;-2.774;2022-08-21T07:16:24;101410.70;;;18.45;48.26
49108;BME280;36693;47.666;-2.774;2022-08-21T07:18:51;101407.33;;;18.74;48.84
49108;BME280;36693;47.666;-2.774;2022-08-21T07:21:19;101403.76;;;18.85;48.32
49108;BME280;36693;47.666;-2.774;2022-08-21T07:23:49;101398.50;;;17.79;51.35
49108;BME280;36693;47.666;-2.774;2022-08-21T07:26:19;101394.70;;;17.75;50.88
49108;BME280;36693;47.666;-2.774;2022-08-21T07:28:47;101387.36;;;18.41;49.98
49108;BME280;36693;47.666;-2.774;2022-08-21T07:31:17;101400.03;;;17.68;51.17
49108;BME280;36693;47.666;-2.774;2022-08-21T07:33:45;101407.75;;;19.03;48.41
49108;BME280;36693;47.666;-2.774;2022-08-21T07:36:13;101408.36;;;19.56;47.06
49108;BME280;36693;47.666;-2.774;2022-08-21T07:38:41;101409.14;;;19.73;46.80
49108;BME280;36693;47.666;-2.774;2022-08-21T07:41:14;101414.76;;;20.14;46.30
49108;BME280;36693;47.666;-2.774;2022-08-21T07:43:43;101417.98;;;20.08;47.37
49108;BME280;36693;47.666;-2.774;2022-08-21T07:46:11;101417.68;;;19.01;48.44
49108;BME280;36693;47.666;-2.774;2022-08-21T07:48:38;101414.01;;;19.61;48.97
49108;BME280;36693;47.666;-2.774;2022-08-21T07:51:09;101415.83;;;19.66;48.62
49108;BME280;36693;47.666;-2.774;2022-08-21T07:53:37;101415.40;;;19.67;47.58
49108;BME280;36693;47.666;-2.774;2022-08-21T07:56:06;101419.20;;;19.02;50.39
49108;BME280;36693;47.666;-2.774;2022-08-21T07:58:35;101411.61;;;19.24;49.55
49108;BME280;36693;47.666;-2.774;2022-08-21T08:01:02;101400.30;;;19.91;48.13
49108;BME280;36693;47.666;-2.774;2022-08-21T08:03:30;101404.70;;;20.73;46.00
49108;BME280;36693;47.666;-2.774;2022-08-21T08:05:58;101410.15;;;20.08;47.41
49108;BME280;36693;47.666;-2.774;2022-08-21T08:08:25;101426.86;;;19.17;48.95
49108;BME280;36693;47.666;-2.774;2022-08-21T08:10:53;101421.51;;;18.42;51.18
49108;BME280;36693;47.666;-2.774;2022-08-21T08:13:23;101409.85;;;20.04;48.64
49108;BME280;36693;47.666;-2.774;2022-08-21T08:15:51;101406.34;;;19.79;49.84
49108;BME280;36693;47.666;-2.774;2022-08-21T08:18:19;101406.62;;;19.16;50.52
49108;BME280;36693;47.666;-2.774;2022-08-21T08:20:47;101403.84;;;18.64;51.81
49108;BME280;36693;47.666;-2.774;2022-08-21T08:23:15;101408.47;;;18.70;51.04
49108;BME280;36693;47.666;-2.774;2022-08-21T08:25:43;101403.36;;;18.13;52.74
49108;BME280;36693;47.666;-2.774;2022-08-21T08:28:11;101402.10;;;19.69;50.45
49108;BME280;36693;47.666;-2.774;2022-08-21T08:30:41;101402.57;;;19.06;51.05
49108;BME280;36693;47.666;-2.774;2022-08-21T08:33:09;101396.31;;;17.83;53.00
49108;BME280;36693;47.666;-2.774;2022-08-21T08:35:37;101393.26;;;18.20;52.85
49108;BME280;36693;47.666;-2.774;2022-08-21T08:38:04;101397.77;;;18.78;52.36
49108;BME280;36693;47.666;-2.774;2022-08-21T08:40:37;101395.54;;;18.35;53.18
49108;BME280;36693;47.666;-2.774;2022-08-21T08:43:07;101401.39;;;15.83;59.78
49108;BME280;36693;47.666;-2.774;2022-08-21T08:45:38;101401.27;;;18.28;54.97
49108;BME280;36693;47.666;-2.774;2022-08-21T08:48:10;101401.47;;;18.25;55.27
49108;BME280;36693;47.666;-2.774;2022-08-21T08:50:44;101397.56;;;19.04;53.43
49108;BME280;36693;47.666;-2.774;2022-08-21T08:53:17;101402.41;;;18.66;52.93
49108;BME280;36693;47.666;-2.774;2022-08-21T08:55:46;101406.57;;;17.88;56.06
49108;BME280;36693;47.666;-2.774;2022-08-21T08:58:20;101405.95;;;17.72;57.96
49108;BME280;36693;47.666;-2.774;2022-08-21T09:00:52;101410.96;;;17.39;59.40
49108;BME280;36693;47.666;-2.774;2022-08-21T09:03:21;101410.98;;;17.79;58.61
49108;BME280;36693;47.666;-2.774;2022-08-21T09:06:03;101411.69;;;17.98;57.98
49108;BME280;36693;47.666;-2.774;2022-08-21T09:08:44;101411.34;;;18.64;56.54
49108;BME280;36693;47.666;-2.774;2022-08-21T09:11:22;101411.85;;;18.87;55.70
49108;BME280;36693;47.666;-2.774;2022-08-21T09:14:06;101405.74;;;19.26;55.67
49108;BME280;36693;47.666;-2.774;2022-08-21T09:16:44;101398.20;;;19.85;54.54
49108;BME280;36693;47.666;-2.774;2022-08-21T09:19:25;101387.27;;;18.38;56.54
49108;BME280;36693;47.666;-2.774;2022-08-21T09:22:02;101394.20;;;18.36;58.90
49108;BME280;36693;47.666;-2.774;2022-08-21T09:24:34;101406.48;;;18.67;59.09
49108;BME280;36693;47.666;-2.774;2022-08-21T09:27:09;101411.85;;;17.88;59.73
49108;BME280;36693;47.666;-2.774;2022-08-21T09:29:40;101405.08;;;18.70;58.38
49108;BME280;36693;47.666;-2.774;2022-08-21T09:32:14;101408.97;;;17.80;59.89
49108;BME280;36693;47.666;-2.774;2022-08-21T09:34:42;101407.35;;;17.13;61.06
49108;BME280;36693;47.666;-2.774;2022-08-21T09:37:17;101403.66;;;19.45;55.30
49108;BME280;36693;47.666;-2.774;2022-08-21T09:39:45;101402.64;;;19.61;54.98
49108;BME280;36693;47.666;-2.774;2022-08-21T09:42:22;101400.33;;;18.72;57.85
49108;BME280;36693;47.666;-2.774;2022-08-21T09:45:09;101401.17;;;19.11;56.90
49108;BME280;36693;47.666;-2.774;2022-08-21T09:47:37;101401.95;;;18.95;56.37
49108;BME280;36693;47.666;-2.774;2022-08-21T09:50:12;101404.89;;;19.89;55.05
49108;BME280;36693;47.666;-2.774;2022-08-21T09:52:47;101404.74;;;19.33;56.39
49108;BME280;36693;47.666;-2.774;2022-08-21T09:55:20;101402.68;;;19.86;55.12
49108;BME280;36693;47.666;-2.774;2022-08-21T09:57:48;101407.20;;;19.14;56.53
49108;BME280;36693;47.666;-2.774;2022-08-21T10:00:20;101401.21;;;20.08;54.83
49108;BME280;36693;47.666;-2.774;2022-08-21T10:02:51;101401.66;;;20.32;54.99
49108;BME280;36693;47.666;-2.774;2022-08-21T10:05:21;101407.23;;;20.62;52.77
49108;BME280;36693;47.666;-2.774;2022-08-21T10:07:49;101410.09;;;19.99;54.72
49108;BME280;36693;47.666;-2.774;2022-08-21T10:10:20;101413.78;;;20.27;53.71
49108;BME280;36693;47.666;-2.774;2022-08-21T10:12:53;101409.86;;;19.30;56.40
49108;BME280;36693;47.666;-2.774;2022-08-21T10:15:30;101407.43;;;20.29;54.09
49108;BME280;36693;47.666;-2.774;2022-08-21T10:18:06;101406.44;;;18.87;57.15
49108;BME280;36693;47.666;-2.774;2022-08-21T10:20:43;101402.47;;;19.99;53.55
49108;BME280;36693;47.666;-2.774;2022-08-21T10:23:27;101403.93;;;20.28;54.17
49108;BME280;36693;47.666;-2.774;2022-08-21T10:26:02;101400.04;;;20.84;53.60
49108;BME280;36693;47.666;-2.774;2022-08-21T10:28:37;101403.39;;;21.67;50.93
49108;BME280;36693;47.666;-2.774;2022-08-21T10:31:16;101404.02;;;21.06;52.19
49108;BME280;36693;47.666;-2.774;2022-08-21T10:33:51;101405.99;;;19.56;55.60
49108;BME280;36693;47.666;-2.774;2022-08-21T10:36:32;101402.18;;;20.31;52.99
49108;BME280;36693;47.666;-2.774;2022-08-21T10:39:07;101395.42;;;20.80;53.59
49108;BME280;36693;47.666;-2.774;2022-08-21T10:42:00;101389.02;;;21.09;51.87
49108;BME280;36693;47.666;-2.774;2022-08-21T10:44:47;101389.38;;;20.62;53.35
49108;BME280;36693;47.666;-2.774;2022-08-21T10:47:22;101391.18;;;20.09;53.39
49108;BME280;36693;47.666;-2.774;2022-08-21T10:49:58;101390.06;;;20.42;54.04
49108;BME280;36693;47.666;-2.774;2022-08-21T10:52:39;101392.89;;;20.62;52.06
49108;BME280;36693;47.666;-2.774;2022-08-21T10:55:16;101388.72;;;18.58;56.08
49108;BME280;36693;47.666;-2.774;2022-08-21T10:57:49;101384.47;;;20.18;54.64
49108;BME280;36693;47.666;-2.774;2022-08-21T11:00:20;101386.63;;;20.73;52.80
49108;BME280;36693;47.666;-2.774;2022-08-21T11:02:52;101388.51;;;20.47;54.07
49108;BME280;36693;47.666;-2.774;2022-08-21T11:05:34;101384.19;;;20.29;54.46
49108;BME280;36693;47.666;-2.774;2022-08-21T11:08:08;101379.90;;;20.61;52.67
49108;BME280;36693;47.666;-2.774;2022-08-21T11:10:40;101376.97;;;20.35;53.53
49108;BME280;36693;47.666;-2.774;2022-08-21T11:13:16;101383.14;;;19.60;53.90
49108;BME280;36693;47.666;-2.774;2022-08-21T11:15:51;101388.53;;;18.25;58.49
49108;BME280;36693;47.666;-2.774;2022-08-21T11:18:27;101379.34;;;18.89;57.53
49108;BME280;36693;47.666;-2.774;2022-08-21T11:21:03;101378.84;;;20.70;54.25
49108;BME280;36693;47.666;-2.774;2022-08-21T11:23:38;101378.89;;;19.91;55.84
49108;BME280;36693;47.666;-2.774;2022-08-21T11:26:11;101376.91;;;20.49;54.29
49108;BME280;36693;47.666;-2.774;2022-08-21T11:28:46;101378.96;;;21.50;52.14
49108;BME280;36693;47.666;-2.774;2022-08-21T11:31:30;101376.51;;;21.12;51.25
49108;BME280;36693;47.666;-2.774;2022-08-21T11:34:10;101368.33;;;21.00;52.63
49108;BME280;36693;47.666;-2.774;2022-08-21T11:36:49;101369.96;;;20.20;54.73
49108;BME280;36693;47.666;-2.774;2022-08-21T11:39:25;101372.72;;;20.89;51.55
49108;BME280;36693;47.666;-2.774;2022-08-21T11:42:01;101371.14;;;21.29;51.85
49108;BME280;36693;47.666;-2.774;2022-08-21T11:44:41;101371.69;;;21.67;51.48
49108;BME280;36693;47.666;-2.774;2022-08-21T11:47:17;101369.19;;;21.19;53.65
49108;BME280;36693;47.666;-2.774;2022-08-21T11:49:59;101377.67;;;21.74;53.11
49108;BME280;36693;47.666;-2.774;2022-08-21T11:52:34;101364.15;;;19.85;58.59
49108;BME280;36693;47.666;-2.774;2022-08-21T11:55:07;101363.88;;;19.64;59.47
49108;BME280;36693;47.666;-2.774;2022-08-21T11:57:41;101366.38;;;19.35;60.07
49108;BME280;36693;47.666;-2.774;2022-08-21T12:00:18;101362.81;;;18.39;61.72
49108;BME280;36693;47.666;-2.774;2022-08-21T12:02:51;101364.73;;;20.13;57.17
49108;BME280;36693;47.666;-2.774;2022-08-21T12:05:28;101361.27;;;19.71;58.52
49108;BME280;36693;47.666;-2.774;2022-08-21T12:08:05;101361.88;;;20.24;57.67
49108;BME280;36693;47.666;-2.774;2022-08-21T12:10:36;101362.44;;;20.93;55.11
49108;BME280;36693;47.666;-2.774;2022-08-21T12:13:10;101355.13;;;21.65;52.69
49108;BME280;36693;47.666;-2.774;2022-08-21T12:15:38;101358.18;;;21.51;53.50
49108;BME280;36693;47.666;-2.774;2022-08-21T12:18:22;101347.23;;;21.02;56.15
49108;BME280;36693;47.666;-2.774;2022-08-21T12:21:01;101345.19;;;20.82;56.70
49108;BME280;36693;47.666;-2.774;2022-08-21T12:23:31;101342.29;;;21.30;54.85
49108;BME280;36693;47.666;-2.774;2022-08-21T12:26:11;101340.97;;;21.47;54.42
49108;BME280;36693;47.666;-2.774;2022-08-21T12:28:41;101339.15;;;19.94;57.61
49108;BME280;36693;47.666;-2.774;2022-08-21T12:31:19;101338.08;;;21.60;54.34
49108;BME280;36693;47.666;-2.774;2022-08-21T12:33:54;101332.50;;;22.36;51.75
49108;BME280;36693;47.666;-2.774;2022-08-21T12:36:24;101336.07;;;20.84;56.04
49108;BME280;36693;47.666;-2.774;2022-08-21T12:38:58;101340.53;;;20.97;55.36
49108;BME280;36693;47.666;-2.774;2022-08-21T12:41:32;101337.94;;;20.79;55.24
49108;BME280;36693;47.666;-2.774;2022-08-21T12:44:05;101334.85;;;21.19;53.79
49108;BME280;36693;47.666;-2.774;2022-08-21T12:46:43;101334.62;;;23.46;49.36
49108;BME280;36693;47.666;-2.774;2022-08-21T12:49:15;101333.74;;;22.76;50.80
49108;BME280;36693;47.666;-2.774;2022-08-21T12:51:52;101333.43;;;22.48;50.98
49108;BME280;36693;47.666;-2.774;2022-08-21T12:54:25;101339.94;;;23.12;49.72
49108;BME280;36693;47.666;-2.774;2022-08-21T12:56:59;101331.67;;;22.93;49.71